»·PEaware :: N234CA KLAX-KSAN

N234CA :: KLAX-KSAN

FLIGHT INFORMATION

Flight Status: Arrived
Operator: Privately registered:
United States
More flights under this callsign
Pilot: Colin T. (23854)
Aircraft: CESSNA T210 TURBO CENTURION
(T210)
More flights by this aircraft type
Origin: KLAX Los Angeles Intl
United States
Destination: KSAN San Diego Intl-Lindbergh
United States
More flights between these airports :: More routes between these airports
Route: +PASSING C11
File this flight plan on PilotEdge
Remarks:
Altitude:
(Current/Filed)
0ft
Speed:
(Current/Filed)
0kts
Departed: 08-Feb-20 11:30 AM
Arrived: 08-Feb-20 12:12 PM
Distance/Time
Traveled:
95nm/0:42
Distance/Time
To Go:
Arrived

Flight Plot

Page will automatically refresh every two minutes.

Flight plan parsing failed; only flown route is shown


Map Options




Map Legend


Flown Route
Filed Route
Departure Airport
Arrival Airport
Navaid (VOR, NDB)
Fix

Horizontal Profiles

Position Reports

Time Latitude Longitude Heading Altitude Ground
Speed
08-Feb-20 11:29 33.824873 -118.478270 142 3000ft 154kts
08-Feb-20 11:30 33.790897 -118.446856 142 3000ft 154kts
08-Feb-20 11:31 33.756879 -118.415297 142 3494ft 153kts
08-Feb-20 11:32 33.722424 -118.385204 147 3508ft 151kts
08-Feb-20 11:33 33.688537 -118.355229 141 3509ft 151kts
08-Feb-20 11:34 33.661514 -118.317500 116 3519ft 151kts
08-Feb-20 11:35 33.645838 -118.270459 111 3516ft 152kts
08-Feb-20 11:36 33.630774 -118.223161 111 3514ft 152kts
08-Feb-20 11:37 33.606812 -118.181835 129 3513ft 151kts
08-Feb-20 11:38 33.580686 -118.142024 127 3512ft 152kts
08-Feb-20 11:39 33.555007 -118.101808 127 3512ft 152kts
08-Feb-20 11:40 33.529416 -118.061654 127 3513ft 151kts
08-Feb-20 11:41 33.503750 -118.021341 127 3515ft 151kts
08-Feb-20 11:42 33.478154 -117.981178 127 3516ft 151kts
08-Feb-20 11:43 33.452573 -117.941132 127 3517ft 151kts
08-Feb-20 11:44 33.427016 -117.901125 127 3518ft 151kts
08-Feb-20 11:45 33.401516 -117.861287 127 3519ft 151kts
08-Feb-20 11:46 33.375950 -117.821375 127 3518ft 151kts
08-Feb-20 11:46 33.354544 -117.788004 128 3518ft 151kts
08-Feb-20 11:48 33.324676 -117.741552 128 3518ft 151kts
08-Feb-20 11:49 33.299023 -117.701645 128 3518ft 151kts
08-Feb-20 11:49 33.277702 -117.668519 128 3509ft 151kts
08-Feb-20 11:50 33.252006 -117.628593 128 3509ft 151kts
08-Feb-20 11:52 33.222032 -117.582112 128 3508ft 151kts
08-Feb-20 11:52 33.202850 -117.547311 112 3507ft 151kts
08-Feb-20 11:53 33.189079 -117.499551 108 3503ft 152kts
08-Feb-20 11:55 33.173638 -117.443602 108 3499ft 152kts
08-Feb-20 11:55 33.162564 -117.403575 108 3496ft 152kts
08-Feb-20 11:56 33.149312 -117.355701 108 3492ft 152kts
08-Feb-20 11:57 33.135979 -117.307691 109 3491ft 152kts
08-Feb-20 11:58 33.105857 -117.275948 163 3490ft 149kts
08-Feb-20 11:59 33.065255 -117.265525 170 3490ft 149kts
08-Feb-20 12:00 33.024346 -117.256146 170 3472ft 149kts
08-Feb-20 12:01 32.983621 -117.246792 170 3471ft 149kts
08-Feb-20 12:02 32.942759 -117.237426 170 3472ft 149kts
08-Feb-20 12:03 32.902157 -117.228117 170 3474ft 149kts
08-Feb-20 12:04 32.861341 -117.218763 170 3478ft 149kts
08-Feb-20 12:05 32.821664 -117.209713 170 3475ft 135kts
08-Feb-20 12:06 32.786099 -117.201758 171 3160ft 135kts
08-Feb-20 12:07 32.758342 -117.175681 94 2409ft 134kts
08-Feb-20 12:08 32.745152 -117.142124 182 2169ft 103kts
08-Feb-20 12:09 32.725727 -117.154259 253 1166ft 75kts
08-Feb-20 12:10 32.730544 -117.177476 286 109ft 72kts
08-Feb-20 12:11 32.732445 -117.188700 236 21ft 0kts
08-Feb-20 12:12 32.732445 -117.188699 236 21ft 0kts
08-Feb-20 12:13 32.732532 -117.190440 214 21ft 8kts
08-Feb-20 12:14 32.730964 -117.190242 203 21ft 0kts
08-Feb-20 12:15 32.730964 -117.190242 202 21ft 0kts
08-Feb-20 12:16 32.730964 -117.190242 202 21ft 0kts
08-Feb-20 12:17 32.730964 -117.190242 202 21ft 0kts
08-Feb-20 12:18 32.730964 -117.190242 202 21ft 0kts

Navigation Log

Ident Type
Flight plan parsing failed, navigation log unavailable